Time;durP1;ratioP1;P1;durP2;ratioP2;P2;SDS_P1;SDS_P2;PMS_P1;PMS_P2;Temp;Humidity;BMP_temperature;BMP_pressure;BME280_temperature;BME280_humidity;BME280_pressure;Samples;Min_cycle;Max_cycle;Signal;HPM_P1;HPM_P2
2021/07/04 00:01:42;;;;;;;9.00;6.00;;;;;;;17.54;90.71;101223.06;5073508;28;20258;-40
2021/07/04 00:04:07;;;;;;;;;;;;;;;17.64;89.13;101218.47;5076743;28;20024;-40
2021/07/04 00:06:32;;;;;;;7.40;5.57;;;;;;;17.53;89.91;101219.53;5076331;28;19951;-41
2021/07/04 00:08:57;;;;;;;;;;;;;;;17.65;88.72;101217.38;5076773;28;20273;-41
2021/07/04 00:11:23;;;;;;;7.17;5.67;;;;;;;17.50;90.21;101207.19;5076385;28;19908;-40
2021/07/04 00:13:48;;;;;;;;;;;;;;;17.65;88.58;101214.63;5076364;28;20270;-41
2021/07/04 00:16:14;;;;;;;6.15;5.40;;;;;;;17.62;89.63;101217.09;5075972;28;19961;-41
2021/07/04 00:18:39;;;;;;;;;;;;;;;17.72;88.31;101219.84;5076825;28;20048;-41
2021/07/04 00:21:07;;;;;;;7.18;5.32;;;;;;;17.62;89.64;101220.66;5076230;28;20322;-41
2021/07/04 00:23:34;;;;;;;8.43;6.03;;;;;;;17.54;89.74;101217.59;5076310;28;20028;-41
2021/07/04 00:25:59;;;;;;;6.90;5.38;;;;;;;17.59;90.11;101215.72;5076623;28;20028;-41
2021/07/04 00:28:25;;;;;;;7.18;6.45;;;;;;;17.59;90.14;101215.72;5076000;28;20023;-41
2021/07/04 00:30:50;;;;;;;;;;;;;;;17.68;88.74;101213.28;5077232;28;20101;-41
2021/07/04 00:33:16;;;;;;;6.55;5.88;;;;;;;17.57;89.87;101206.13;5075584;28;19951;-41
2021/07/04 00:35:41;;;;;;;;;;;;;;;17.66;88.89;101199.84;5076580;28;20062;-41
2021/07/04 00:38:08;;;;;;;6.35;5.75;;;;;;;17.53;90.33;101210.50;5075810;28;19908;-41
2021/07/04 00:40:36;;;;;;;6.13;5.53;;;;;;;17.54;89.91;101207.50;5076664;28;20024;-41
2021/07/04 00:43:02;;;;;;;6.40;5.80;;;;;;;17.49;90.00;101200.09;5075757;28;20112;-41
2021/07/04 00:45:28;;;;;;;7.40;5.70;;;;;;;17.50;89.66;101203.66;5076052;28;20123;-41
2021/07/04 00:47:55;;;;;;;8.40;6.10;;;;;;;17.51;89.82;101199.81;5075401;28;20504;-40
2021/07/04 00:50:22;;;;;;;6.63;6.03;;;;;;;17.49;89.81;101200.09;5075345;28;20028;-40
2021/07/04 00:52:48;;;;;;;6.40;5.75;;;;;;;17.38;89.86;101187.50;5075581;28;20028;-40
2021/07/04 00:55:16;;;;;;;6.57;5.85;;;;;;;17.38;89.34;101203.06;5075252;28;20074;-40
2021/07/04 00:57:43;;;;;;;10.68;6.22;;;;;;;17.34;89.57;101202.78;5075410;28;20554;-41
2021/07/04 01:00:11;;;;;;;7.10;5.57;;;;;;;17.30;89.84;101198.94;5075694;28;20032;-41
2021/07/04 01:02:37;;;;;;;6.85;6.15;;;;;;;17.30;89.38;101192.66;5075349;28;20021;-40
2021/07/04 01:05:08;;;;;;;7.15;6.00;;;;;;;17.30;89.83;101200.84;5075069;28;20028;-40
2021/07/04 01:07:33;;;;;;;6.68;5.97;;;;;;;17.21;89.86;101190.41;5075235;28;20034;-40
2021/07/04 01:09:59;;;;;;;6.05;5.25;;;;;;;17.19;89.39;101181.66;5075505;28;20029;-40
2021/07/04 01:12:24;;;;;;;;;;;;;;;17.35;88.41;101184.47;5074812;28;20441;-40
2021/07/04 01:14:50;;;;;;;6.23;5.63;;;;;;;17.15;89.11;101182.47;5075521;28;19908;-40
2021/07/04 01:17:15;;;;;;;6.55;5.43;;;;;;;17.10;89.26;101179.72;5074850;28;20286;-41
2021/07/04 01:19:41;;;;;;;;;;;;;;;17.23;88.51;101177.31;5076334;28;20025;-40
2021/07/04 01:22:07;;;;;;;7.28;5.70;;;;;;;17.10;89.46;101166.06;5075498;28;19912;-40
2021/07/04 01:24:32;;;;;;;7.20;6.28;;;;;;;17.05;89.84;101176.97;5075216;28;20020;-40
2021/07/04 01:26:58;;;;;;;6.90;6.20;;;;;;;17.02;89.82;101174.75;5074710;28;20461;-41
2021/07/04 01:29:23;;;;;;;6.53;5.60;;;;;;;16.94;88.91;101166.00;5074850;28;20330;-40
2021/07/04 01:31:48;;;;;;;;;;;;;;;17.11;88.53;101173.16;5075169;28;20036;-41
2021/07/04 01:34:14;;;;;;;6.68;5.57;;;;;;;16.91;88.82;101171.16;5074935;28;19908;-41
2021/07/04 01:36:40;;;;;;;;;;;;;;;17.06;88.05;101170.41;5075114;28;20346;-40
2021/07/04 01:39:07;;;;;;;7.15;5.80;;;;;;;16.84;88.99;101163.22;5073339;28;19908;-41
2021/07/04 01:41:34;;;;;;;7.82;5.90;;;;;;;16.81;89.36;101165.63;5074891;28;20107;-40
2021/07/04 01:44:00;;;;;;;6.18;5.57;;;;;;;16.75;89.26;101166.69;5074454;28;20031;-40
2021/07/04 01:46:25;;;;;;;7.07;6.38;;;;;;;16.74;89.03;101168.63;5075365;28;20028;-40
2021/07/04 01:48:50;;;;;;;;;;;;;;;16.87;88.48;101168.13;5074486;28;20103;-40
2021/07/04 01:51:16;;;;;;;6.93;5.90;;;;;;;16.72;89.52;101168.84;5074661;28;19908;-40
2021/07/04 01:53:41;;;;;;;;;;;;;;;16.85;88.03;101166.75;5074969;28;20399;-40
2021/07/04 01:56:07;;;;;;;6.45;5.78;;;;;;;16.65;89.24;101167.44;5074611;28;19912;-40
2021/07/04 01:58:33;;;;;;;;;;;;;;;16.78;87.96;101172.44;5074636;28;20028;-40
2021/07/04 02:00:59;;;;;;;6.60;6.00;;;;;;;16.58;89.89;101167.63;5074802;28;20247;-40
2021/07/04 02:03:24;;;;;;;;;;;;;;;16.72;88.05;101166.13;5074263;28;20021;-40
2021/07/04 02:05:49;;;;;;;7.10;5.57;;;;;;;16.51;89.14;101164.34;5074181;28;19904;-40
2021/07/04 02:08:14;;;;;;;;;;;;;;;16.66;88.25;101160.88;5074517;28;20414;-40
2021/07/04 02:10:40;;;;;;;6.97;5.57;;;;;;;16.47;88.53;101160.47;5074667;28;19912;-40
2021/07/04 02:13:07;;;;;;;6.53;5.80;;;;;;;16.43;89.20;101164.81;5074011;28;20301;-40
2021/07/04 02:15:35;;;;;;;6.40;5.80;;;;;;;16.33;89.51;101162.81;5074755;28;20353;-40
2021/07/04 02:18:05;;;;;;;6.93;6.32;;;;;;;16.34;89.73;101169.91;5073924;28;20052;-40
2021/07/04 02:20:31;;;;;;;6.72;6.10;;;;;;;16.33;89.27;101164.75;5073926;28;20028;-40
2021/07/04 02:23:01;;;;;;;7.07;5.55;;;;;;;16.27;88.84;101163.06;5073899;28;20026;-40
2021/07/04 02:25:27;;;;;;;7.40;6.05;;;;;;;16.24;89.86;101161.66;5074392;28;20048;-41
2021/07/04 02:27:52;;;;;;;6.90;6.25;;;;;;;16.27;89.35;101160.34;5073799;28;20020;-40
2021/07/04 02:30:18;;;;;;;;;;;;;;;16.41;88.72;101172.44;5073938;28;20032;-40
2021/07/04 02:32:43;;;;;;;8.10;6.00;;;;;;;16.25;89.00;101167.94;5073690;28;19912;-40
2021/07/04 02:35:09;;;;;;;10.70;6.57;;;;;;;16.19;89.57;101167.09;5073228;28;20036;-40
2021/07/04 02:37:34;;;;;;;;;;;;;;;16.36;88.65;101161.50;5074411;28;20017;-41
2021/07/04 02:40:00;;;;;;;10.90;6.10;;;;;;;16.17;89.16;101169.25;5074299;28;19911;-40
2021/07/04 02:42:25;;;;;;;7.53;5.72;;;;;;;16.14;88.68;101167.84;5073686;28;20273;-41
2021/07/04 02:44:50;;;;;;;;;;;;;;;16.29;88.42;101169.06;5074125;28;20368;-41
2021/07/04 02:47:15;;;;;;;7.73;5.67;;;;;;;16.13;89.08;101174.41;5074154;28;19940;-40
2021/07/04 02:49:41;;;;;;;;;;;;;;;16.29;88.19;101169.06;5074874;28;20079;-40
2021/07/04 02:52:06;;;;;;;7.40;6.70;;;;;;;16.14;89.68;101162.41;5073249;28;19911;-40
2021/07/04 02:54:31;;;;;;;;;;;;;;;16.32;88.19;101168.56;5073765;28;20103;-40
2021/07/04 02:56:57;;;;;;;7.70;6.90;;;;;;;16.20;90.22;101158.66;5073563;28;19908;-40
2021/07/04 02:59:22;;;;;;;7.90;6.80;;;;;;;16.19;90.56;101165.16;5073510;28;20592;-40
2021/07/04 03:01:47;;;;;;;7.63;6.85;;;;;;;16.21;90.47;101168.47;5074322;28;20132;-40
2021/07/04 03:04:13;;;;;;;;;;;;;;;16.36;89.35;101169.69;5074149;28;20024;-40
2021/07/04 03:06:38;;;;;;;7.13;6.53;;;;;;;16.29;90.21;101163.59;5073740;28;19909;-40
2021/07/04 03:09:04;;;;;;;6.88;6.28;;;;;;;16.27;90.64;101176.69;5073378;28;20274;-40
2021/07/04 03:11:29;;;;;;;;;;;;;;;16.41;89.12;101176.00;5073765;28;20457;-40
2021/07/04 03:13:54;;;;;;;6.65;6.05;;;;;;;16.32;90.17;101171.28;5073067;28;20294;-40
2021/07/04 03:16:20;;;;;;;;;;;;;;;16.45;89.26;101179.84;5073763;28;20022;-40
2021/07/04 03:18:45;;;;;;;7.88;6.57;;;;;;;16.35;90.61;101176.22;5073380;28;19919;-40
2021/07/04 03:21:10;;;;;;;6.22;5.43;;;;;;;16.32;90.94;101158.47;5073357;28;20036;-40
2021/07/04 03:23:36;;;;;;;;;;;;;;;16.48;89.63;101162.13;5073403;28;20024;-40
2021/07/04 03:26:01;;;;;;;7.80;6.22;;;;;;;16.36;90.82;101164.22;5074089;28;19904;-40
2021/07/04 03:28:26;;;;;;;;;;;;;;;16.48;89.19;101151.19;5073398;28;20070;-40
2021/07/04 03:30:52;;;;;;;8.10;5.57;;;;;;;16.33;90.05;101157.38;5073511;28;19908;-40
2021/07/04 03:33:17;;;;;;;7.38;6.07;;;;;;;16.34;90.20;101158.19;5073214;28;20259;-40
2021/07/04 03:35:43;;;;;;;;;;;;;;;16.46;89.21;101162.38;5073570;28;20059;-40
2021/07/04 03:38:08;;;;;;;12.70;6.45;;;;;;;16.34;90.22;101171.84;5076855;28;19967;-41
2021/07/04 03:40:33;;;;;;;;;;;;;;;16.48;89.31;101170.31;5077995;28;20471;-40
2021/07/04 03:42:59;;;;;;;6.88;6.00;;;;;;;16.36;90.36;101161.50;5077079;28;19915;-41
2021/07/04 03:45:24;;;;;;;;;;;;;;;16.46;89.58;101150.66;5077800;28;20059;-40
2021/07/04 03:47:49;;;;;;;7.53;6.83;;;;;;;16.35;90.42;101166.13;5076400;28;19999;-40
2021/07/04 03:50:14;;;;;;;7.35;6.35;;;;;;;16.33;91.06;101151.09;5075941;28;20356;-40
2021/07/04 03:52:41;;;;;;;7.55;6.70;;;;;;;16.33;90.97;101160.09;5076742;28;20099;-40
2021/07/04 03:55:07;;;;;;;8.77;6.75;;;;;;;16.31;91.55;101161.47;5077122;28;20025;-40
2021/07/04 03:57:32;;;;;;;9.00;6.72;;;;;;;16.29;91.53;101164.44;5076550;28;20024;-40
2021/07/04 03:59:59;;;;;;;;;;;;;;;16.42;90.05;101160.44;5077844;28;20029;-40
2021/07/04 04:02:25;;;;;;;6.15;5.55;;;;;;;16.39;90.47;101152.75;5076967;28;19908;-40
2021/07/04 04:04:57;;;;;;;;;;;;;;;16.48;89.63;101145.75;5076956;28;20352;-40
2021/07/04 04:07:23;;;;;;;6.90;5.38;;;;;;;16.38;91.28;101154.69;5076411;28;19904;-40
2021/07/04 04:09:51;;;;;;;7.18;5.75;;;;;;;16.40;90.60;101146.25;5077210;28;20028;-40
2021/07/04 04:12:17;;;;;;;6.28;5.72;;;;;;;16.44;91.28;101147.34;5076287;28;20031;-40
2021/07/04 04:14:42;;;;;;;6.63;6.03;;;;;;;16.44;90.64;101148.16;5076326;28;20394;-41
2021/07/04 04:17:07;;;;;;;;;;;;;;;16.58;90.04;101151.25;5077465;28;20108;-41
2021/07/04 04:19:33;;;;;;;7.13;6.43;;;;;;;16.44;91.36;101155.53;5076545;28;19913;-40
2021/07/04 04:21:59;;;;;;;7.63;6.93;;;;;;;16.37;91.69;101150.31;5075839;28;20255;-41
2021/07/04 04:24:24;;;;;;;8.95;6.65;;;;;;;16.42;91.76;101149.53;5075874;28;20150;-41
2021/07/04 04:26:49;;;;;;;6.75;6.15;;;;;;;16.42;92.02;101144.88;5076091;28;20036;-41
2021/07/04 04:29:15;;;;;;;;;;;;;;;16.53;90.92;101140.31;5076143;28;20052;-40
2021/07/04 04:31:40;;;;;;;7.97;6.30;;;;;;;16.51;91.83;101139.75;5076585;28;19905;-40
2021/07/04 04:34:06;;;;;;;;;;;;;;;16.60;90.71;101146.38;5076338;28;20036;-40
2021/07/04 04:36:31;;;;;;;9.68;6.80;;;;;;;16.55;92.25;101143.63;5076612;28;19908;-40
2021/07/04 04:38:56;;;;;;;8.50;7.50;;;;;;;16.59;92.05;101152.06;5075862;28;20073;-40
2021/07/04 04:41:22;;;;;;;13.77;9.07;;;;;;;16.64;92.12;101150.22;5075614;28;20043;-40
2021/07/04 04:43:47;;;;;;;18.02;11.82;;;;;;;16.63;91.92;101147.75;5075760;28;20285;-40
2021/07/04 04:46:13;;;;;;;18.17;13.35;;;;;;;16.72;91.56;101146.19;5076044;28;20021;-40
2021/07/04 04:48:38;;;;;;;;;;;;;;;16.83;91.47;101149.78;5074904;28;20028;-40
2021/07/04 04:51:04;;;;;;;19.93;15.63;;;;;;;16.78;92.22;101155.22;5076249;28;19973;-41
2021/07/04 04:53:30;;;;;;;25.05;17.05;;;;;;;16.78;92.15;101144.31;5075839;28;20606;-40
2021/07/04 04:55:55;;;;;;;27.73;19.10;;;;;;;16.76;92.76;101149.22;5075545;28;20024;-40
2021/07/04 04:58:20;;;;;;;23.60;15.63;;;;;;;16.79;92.52;101151.41;5075206;28;20312;-40
2021/07/04 05:00:46;;;;;;;31.97;20.30;;;;;;;16.79;92.35;101152.25;5076366;28;20292;-40
2021/07/04 05:03:11;;;;;;;34.35;20.30;;;;;;;16.80;92.88;101153.06;5075164;28;20328;-41
2021/07/04 05:05:36;;;;;;;;;;;;;;;16.95;91.27;101153.97;5076385;28;20062;-40
2021/07/04 05:08:02;;;;;;;35.60;20.88;;;;;;;16.86;91.97;101154.72;5075303;28;20011;-40
2021/07/04 05:10:28;;;;;;;;;;;;;;;16.99;91.70;101146.06;5076524;28;20028;-40
2021/07/04 05:12:53;;;;;;;38.30;21.52;;;;;;;16.92;92.63;101146.28;5075242;28;19911;-40
2021/07/04 05:15:19;;;;;;;;;;;;;;;17.07;91.68;101140.06;5075516;28;20020;-40
2021/07/04 05:17:44;;;;;;;35.50;23.02;;;;;;;17.02;92.41;101137.31;5075267;28;20291;-40
2021/07/04 05:20:10;;;;;;;;;;;;;;;17.14;91.46;101142.56;5076040;28;20120;-40
2021/07/04 05:22:35;;;;;;;31.08;23.00;;;;;;;17.15;92.63;101138.75;5075246;28;20295;-40
2021/07/04 05:25:02;;;;;;;38.78;24.55;;;;;;;17.14;92.55;101137.94;5075464;28;20399;-40
2021/07/04 05:27:27;;;;;;;36.95;25.00;;;;;;;17.17;92.38;101129.19;5074595;28;20464;-40
2021/07/04 05:29:53;;;;;;;38.60;24.97;;;;;;;17.13;92.19;101125.38;5075439;28;20070;-40
2021/07/04 05:32:19;;;;;;;;;;;;;;;17.29;91.09;101134.44;5075499;28;20306;-40
2021/07/04 05:34:45;;;;;;;27.38;20.00;;;;;;;17.22;91.27;101128.38;5074024;28;19911;-41
2021/07/04 05:37:10;;;;;;;33.42;24.58;;;;;;;17.21;91.85;101124.00;5074628;28;20032;-40
2021/07/04 05:39:35;;;;;;;;;;;;;;;17.34;91.21;101125.41;5075280;28;20024;-40
2021/07/04 05:42:01;;;;;;;39.10;27.00;;;;;;;17.28;91.81;101121.03;5075136;28;20264;-40
2021/07/04 05:44:26;;;;;;;35.83;26.13;;;;;;;17.36;91.80;101125.97;5075337;28;20437;-40
2021/07/04 05:46:51;;;;;;;;;;;;;;;17.60;91.19;101138.03;5075017;28;20032;-40
2021/07/04 05:49:17;;;;;;;37.55;26.80;;;;;;;17.67;90.85;101135.88;5074419;28;19908;-40
2021/07/04 05:51:42;;;;;;;;;;;;;;;17.85;90.64;101131.81;5074885;28;20475;-40
2021/07/04 05:54:08;;;;;;;33.90;25.55;;;;;;;17.82;89.97;101121.44;5074407;28;19912;-40
2021/07/04 05:56:33;;;;;;;;;;;;;;;18.01;89.90;101118.97;5074982;28;20107;-40
2021/07/04 05:58:59;;;;;;;36.37;27.03;;;;;;;17.93;89.72;101114.06;5073960;28;19950;-40
2021/07/04 06:01:24;;;;;;;38.00;27.45;;;;;;;17.97;90.07;101118.72;5075089;28;20254;-40
2021/07/04 06:03:49;;;;;;;;;;;;;;;18.13;89.40;101118.69;5074651;28;20020;-41
2021/07/04 06:06:15;;;;;;;40.40;29.10;;;;;;;18.10;89.37;101121.97;5074228;28;19947;-40
2021/07/04 06:08:40;;;;;;;;;;;;;;;18.24;89.05;101125.78;5074801;28;20112;-40
2021/07/04 06:11:05;;;;;;;41.20;29.58;;;;;;;18.11;89.56;101118.97;5074086;28;19908;-41
2021/07/04 06:13:31;;;;;;;;;;;;;;;18.27;89.24;101109.66;5074157;28;20016;-40
2021/07/04 06:15:56;;;;;;;39.20;29.37;;;;;;;18.23;89.28;101107.75;5074157;28;20259;-41
2021/07/04 06:18:21;;;;;;;;;;;;;;;18.38;88.76;101102.22;5074203;28;20051;-40
2021/07/04 06:20:47;;;;;;;41.40;29.53;;;;;;;18.30;89.05;101110.19;5074513;28;20268;-41
2021/07/04 06:23:12;;;;;;;;;;;;;;;18.46;88.75;101103.59;5074835;28;20789;-41
2021/07/04 06:25:37;;;;;;;39.23;30.43;;;;;;;18.27;88.66;101115.13;5073878;28;19912;-41
2021/07/04 06:28:03;;;;;;;;;;;;;;;18.39;88.39;101103.88;5074497;28;20028;-41
2021/07/04 06:30:28;;;;;;;39.83;30.17;;;;;;;18.23;88.75;101105.00;5073858;28;19919;-40
2021/07/04 06:32:54;;;;;;;;;;;;;;;18.35;88.55;101094.59;5074971;28;20025;-40
2021/07/04 06:35:19;;;;;;;41.47;30.90;;;;;;;18.29;88.41;101101.16;5073450;28;20393;-40
2021/07/04 06:37:45;;;;;;;;;;;;;;;18.43;88.05;101104.13;5074038;28;20266;-41
2021/07/04 06:40:11;;;;;;;43.28;32.05;;;;;;;18.36;87.60;101101.69;5074255;28;19948;-40
2021/07/04 06:42:37;;;;;;;41.90;30.92;;;;;;;18.41;88.00;101098.13;5074330;28;20078;-41
2021/07/04 06:45:03;;;;;;;;;;;;;;;18.57;87.67;101097.00;5074647;28;20395;-41
2021/07/04 06:47:28;;;;;;;41.88;30.08;;;;;;;18.50;87.31;101093.72;5073409;28;19915;-41
2021/07/04 06:49:53;;;;;;;;;;;;;;;18.65;87.14;101099.16;5074827;28;20028;-40
2021/07/04 06:52:19;;;;;;;41.93;32.50;;;;;;;18.54;85.79;101094.78;5074025;28;19904;-40
2021/07/04 06:54:44;;;;;;;;;;;;;;;18.66;86.76;101102.72;5073936;28;20313;-40
2021/07/04 06:57:28;;;;;;;47.50;34.13;;;;;;;18.51;86.12;101096.19;5073357;28;20256;-41
2021/07/04 07:00:14;;;;;;;47.58;32.85;;;;;;;18.53;85.90;101088.50;5073434;28;20287;-40
2021/07/04 07:02:39;;;;;;;46.53;34.85;;;;;;;18.54;86.86;101083.84;5073053;28;20111;-40
2021/07/04 07:05:06;;;;;;;;;;;;;;;18.68;86.33;101090.41;5074018;28;20139;-40
2021/07/04 07:07:32;;;;;;;47.88;34.63;;;;;;;18.52;86.35;101099.75;5072960;28;19915;-41
2021/07/04 07:09:57;;;;;;;;;;;;;;;18.64;86.36;101097.53;5074101;28;20036;-40
2021/07/04 07:12:22;;;;;;;44.30;31.48;;;;;;;18.50;86.62;101085.53;5076843;28;19904;-41
2021/07/04 07:14:48;;;;;;;;;;;;;;;18.63;86.29;101084.09;5077648;28;20032;-41
2021/07/04 07:17:13;;;;;;;44.80;32.60;;;;;;;18.42;85.79;101091.56;5077077;28;19908;-41
2021/07/04 07:19:39;;;;;;;;;;;;;;;18.53;85.92;101101.38;5077885;28;20078;-40
2021/07/04 07:22:04;;;;;;;47.83;33.85;;;;;;;18.44;86.44;101100.28;5077030;28;20006;-41
2021/07/04 07:24:29;;;;;;;;;;;;;;;18.58;86.11;101098.63;5077208;28;20119;-41
2021/07/04 07:26:55;;;;;;;46.60;34.17;;;;;;;18.53;86.44;101095.91;5077746;28;19916;-40
2021/07/04 07:29:20;;;;;;;;;;;;;;;18.69;86.00;101102.19;5078310;28;20028;-40
2021/07/04 07:31:46;;;;;;;44.42;34.45;;;;;;;18.65;85.65;101090.13;5077646;28;19908;-40
2021/07/04 07:34:11;;;;;;;;;;;;;;;18.81;85.83;101099.97;5077130;28;20454;-40
2021/07/04 07:36:37;;;;;;;47.53;33.58;;;;;;;18.77;85.08;101094.22;5076595;28;19909;-41
2021/07/04 07:39:02;;;;;;;;;;;;;;;18.89;85.16;101101.31;5077409;28;20043;-41
2021/07/04 07:41:28;;;;;;;44.90;33.85;;;;;;;18.72;85.49;101098.88;5076963;28;20299;-41
2021/07/04 07:43:53;;;;;;;;;;;;;;;18.90;85.35;101094.72;5077351;28;20446;-41
2021/07/04 07:46:18;;;;;;;44.30;34.15;;;;;;;18.95;86.50;101094.69;5077371;28;19904;-41
2021/07/04 07:48:44;;;;;;;;;;;;;;;19.19;85.92;101094.84;5077620;28;20027;-41
2021/07/04 07:51:09;;;;;;;39.30;31.83;;;;;;;19.23;83.29;101091.28;5076997;28;19904;-40
2021/07/04 07:53:34;;;;;;;;;;;;;;;19.46;84.03;101088.94;5077025;28;20357;-40
2021/07/04 07:56:00;;;;;;;33.00;27.60;;;;;;;19.42;80.86;101093.34;5077419;28;19965;-41
2021/07/04 07:58:25;;;;;;;34.47;28.15;;;;;;;19.46;82.74;101088.94;5077005;28;20021;-40
2021/07/04 08:00:50;;;;;;;;;;;;;;;19.69;81.32;101090.19;5077253;28;20094;-40
2021/07/04 08:03:16;;;;;;;38.25;29.02;;;;;;;19.54;80.77;101091.88;5076487;28;19904;-40
2021/07/04 08:05:41;;;;;;;;;;;;;;;19.70;82.31;101092.63;5076691;28;20052;-40
2021/07/04 08:08:07;;;;;;;37.60;30.20;;;;;;;19.70;81.83;101084.38;5076449;28;20350;-40
2021/07/04 08:10:35;;;;;;;;;;;;;;;19.97;82.46;101088.59;5076812;28;20395;-40
2021/07/04 08:13:02;;;;;;;36.83;27.40;;;;;;;20.00;79.98;101091.53;5076589;28;19998;-40
2021/07/04 08:15:28;;;;;;;33.83;26.42;;;;;;;20.14;78.78;101079.91;5076514;28;20047;-41
2021/07/04 08:17:53;;;;;;;;;;;;;;;20.40;80.32;101074.97;5076662;28;20028;-41
2021/07/04 08:20:19;;;;;;;31.37;25.63;;;;;;;20.29;79.29;101066.03;5076202;28;19912;-41
2021/07/04 08:22:44;;;;;;;;;;;;;;;20.36;77.60;101060.19;5076427;28;20281;-41
2021/07/04 08:25:11;;;;;;;33.38;26.73;;;;;;;20.29;78.54;101057.78;5076177;28;19911;-41
2021/07/04 08:27:37;;;;;;;35.00;27.85;;;;;;;20.35;76.61;101050.31;5075719;28;20456;-41
2021/07/04 08:30:06;;;;;;;;;;;;;;;20.60;78.68;101047.31;5077119;28;20031;-40
2021/07/04 08:32:31;;;;;;;29.13;24.73;;;;;;;20.63;76.66;101045.91;5076271;28;19958;-41
2021/07/04 08:34:56;;;;;;;;;;;;;;;20.85;74.32;101043.44;5076632;28;20024;-41
2021/07/04 08:37:22;;;;;;;28.57;22.90;;;;;;;20.87;74.43;101037.63;5076219;28;19999;-41
2021/07/04 08:39:47;;;;;;;27.90;23.42;;;;;;;20.99;72.64;101046.28;5076428;28;20020;-41
2021/07/04 08:42:12;;;;;;;30.80;25.40;;;;;;;21.04;72.92;101035.22;5075520;28;20048;-41
2021/07/04 08:44:45;;;;;;;;;;;;;;;21.14;72.35;101031.50;5075926;28;20109;-41
2021/07/04 08:47:12;;;;;;;28.55;23.35;;;;;;;21.08;74.02;101041.72;5075980;28;19915;-41
2021/07/04 08:49:37;;;;;;;26.88;22.50;;;;;;;21.11;73.79;101040.31;5075285;28;20461;-41
2021/07/04 08:52:02;;;;;;;;;;;;;;;21.27;74.82;101036.22;5076015;28;20027;-41
2021/07/04 08:54:28;;;;;;;24.95;21.23;;;;;;;21.13;71.34;101044.44;5075853;28;19912;-41
2021/07/04 08:56:53;;;;;;;;;;;;;;;21.33;74.71;101038.66;5075903;28;20380;-41
2021/07/04 08:59:18;;;;;;;24.03;21.03;;;;;;;21.22;74.17;101031.63;5075416;28;19999;-41
2021/07/04 09:01:51;;;;;;;26.50;22.90;;;;;;;21.34;74.70;101037.53;5075752;28;20291;-41
2021/07/04 09:04:25;;;;;;;23.80;20.00;;;;;;;21.48;70.43;101040.34;5075692;28;20422;-41
2021/07/04 09:06:56;;;;;;;25.10;20.73;;;;;;;21.66;69.13;101024.91;5075604;28;20029;-41
2021/07/04 09:09:29;;;;;;;22.45;19.23;;;;;;;21.99;68.20;101020.19;5075572;28;20574;-41
2021/07/04 09:12:06;;;;;;;22.67;19.83;;;;;;;22.01;70.84;101006.13;5074980;28;20403;-40
2021/07/04 09:14:33;;;;;;;21.55;18.63;;;;;;;21.98;67.69;101015.81;5075659;28;20107;-41
2021/07/04 09:17:00;;;;;;;24.30;20.00;;;;;;;21.75;66.06;101019.53;5075349;28;20032;-41
2021/07/04 09:19:26;;;;;;;22.58;18.23;;;;;;;21.75;66.79;101028.59;5075378;28;20044;-41
2021/07/04 09:21:56;;;;;;;20.95;18.48;;;;;;;21.74;67.41;101028.91;5075110;28;20025;-41
2021/07/04 09:24:24;;;;;;;22.90;19.13;;;;;;;21.64;69.53;101016.13;5074682;28;20369;-41
2021/07/04 09:26:50;;;;;;;21.80;19.27;;;;;;;21.77;68.50;101011.81;5074899;28;20031;-41
2021/07/04 09:29:15;;;;;;;22.52;17.95;;;;;;;21.74;67.59;101015.16;5074845;28;20445;-41
2021/07/04 09:31:42;;;;;;;20.75;17.90;;;;;;;21.84;66.98;101010.28;5074777;28;20342;-41
2021/07/04 09:34:12;;;;;;;19.92;17.10;;;;;;;21.84;67.79;101004.78;5074681;28;20052;-41
2021/07/04 09:36:41;;;;;;;19.15;17.17;;;;;;;21.91;69.37;101001.66;5074935;28;20017;-41
2021/07/04 09:39:21;;;;;;;22.80;19.40;;;;;;;21.95;68.04;101010.91;5074632;28;20020;-41
2021/07/04 09:42:06;;;;;;;21.35;17.33;;;;;;;22.06;67.40;101006.06;5074408;28;20021;-41
2021/07/04 09:44:31;;;;;;;20.23;17.10;;;;;;;22.11;65.64;101014.25;5075084;28;20020;-41
2021/07/04 09:47:12;;;;;;;19.50;16.90;;;;;;;22.20;67.45;101004.13;5075013;28;20020;-41
2021/07/04 09:49:38;;;;;;;24.60;19.27;;;;;;;21.93;66.07;101004.09;5074403;28;20036;-41
2021/07/04 09:52:20;;;;;;;23.33;19.65;;;;;;;21.78;65.38;100996.91;5075080;28;20099;-41
2021/07/04 09:55:03;;;;;;;22.42;19.10;;;;;;;22.05;68.36;101005.22;5073966;28;20025;-41
2021/07/04 09:57:59;;;;;;;21.90;18.83;;;;;;;22.24;66.14;100990.56;5074886;28;20020;-41
2021/07/04 10:00:27;;;;;;;20.67;17.77;;;;;;;22.24;67.65;100991.38;5074312;28;20040;-41
2021/07/04 10:03:15;;;;;;;22.90;19.73;;;;;;;22.33;67.59;100989.56;5074495;28;20020;-41
2021/07/04 10:05:43;;;;;;;23.48;19.90;;;;;;;22.06;63.78;100984.84;5073791;28;20024;-41
2021/07/04 10:08:18;;;;;;;24.70;21.08;;;;;;;21.98;64.98;100981.97;5074121;28;20043;-41
2021/07/04 10:10:44;;;;;;;25.35;21.67;;;;;;;22.03;66.11;100973.59;5074247;28;20039;-41
2021/07/04 10:13:10;;;;;;;24.35;19.25;;;;;;;22.11;66.71;100981.19;5073996;28;20028;-41
2021/07/04 10:15:35;;;;;;;24.48;20.63;;;;;;;22.09;69.00;100969.63;5074550;28;20318;-41
2021/07/04 10:18:02;;;;;;;23.95;20.60;;;;;;;22.13;67.67;100976.19;5074196;28;20021;-41
2021/07/04 10:20:28;;;;;;;24.23;20.90;;;;;;;22.09;67.10;100972.38;5074347;28;20036;-41
2021/07/04 10:22:54;;;;;;;26.67;22.70;;;;;;;22.16;66.30;100966.50;5074178;28;20025;-41
2021/07/04 10:25:20;;;;;;;25.58;21.00;;;;;;;22.18;66.14;100959.56;5074204;28;20035;-41
2021/07/04 10:27:49;;;;;;;21.13;17.67;;;;;;;22.25;66.33;100965.50;5073868;28;20150;-41
2021/07/04 10:30:15;;;;;;;19.73;16.23;;;;;;;22.16;64.89;100970.09;5073884;28;20028;-41
2021/07/04 10:33:19;;;;;;;21.85;18.20;;;;;;;22.22;66.51;100960.59;5073658;28;20491;-41
2021/07/04 10:36:07;;;;;;;17.05;14.98;;;;;;;22.29;66.83;100963.72;5073450;28;20024;-41
2021/07/04 10:38:54;;;;;;;19.27;16.77;;;;;;;22.33;65.88;100967.50;5073626;28;20020;-41
2021/07/04 10:41:51;;;;;;;21.45;18.58;;;;;;;22.43;64.82;100946.38;5073926;28;20480;-41
2021/07/04 10:44:17;;;;;;;21.80;18.20;;;;;;;22.41;66.87;100937.63;5073617;28;20074;-41
2021/07/04 10:46:46;;;;;;;24.23;19.88;;;;;;;22.44;65.11;100931.47;5072445;28;20538;-41
2021/07/04 10:49:14;;;;;;;22.20;19.08;;;;;;;22.55;67.64;100935.66;5073254;28;20464;-41
2021/07/04 10:52:00;;;;;;;24.33;20.85;;;;;;;22.32;62.55;100932.84;5073833;28;20024;-41
2021/07/04 10:54:40;;;;;;;25.30;20.30;;;;;;;22.38;66.45;100918.94;5073553;28;20013;-41
2021/07/04 10:57:22;;;;;;;23.92;20.13;;;;;;;22.49;64.32;100925.84;5073441;28;20024;-41
2021/07/04 11:00:00;;;;;;;23.00;19.38;;;;;;;22.83;65.27;100926.19;5074017;28;20457;-41
2021/07/04 11:02:39;;;;;;;20.65;17.67;;;;;;;22.74;61.52;100918.97;5074322;28;20056;-41
2021/07/04 11:05:12;;;;;;;17.08;14.85;;;;;;;22.99;59.16;100906.56;5073972;28;20058;-41
2021/07/04 11:07:52;;;;;;;19.05;14.95;;;;;;;23.24;63.44;100902.38;5073474;28;20357;-41
2021/07/04 11:10:24;;;;;;;18.67;15.52;;;;;;;23.21;61.23;100894.72;5073933;28;20024;-40
2021/07/04 11:12:52;;;;;;;19.15;16.60;;;;;;;23.35;59.58;100899.00;5073384;28;20108;-41
2021/07/04 11:15:20;;;;;;;21.58;16.92;;;;;;;23.67;63.11;100897.13;5073849;28;20032;-41
2021/07/04 11:18:01;;;;;;;21.65;17.10;;;;;;;23.56;59.84;100893.75;5072998;28;20024;-41
2021/07/04 11:20:27;;;;;;;19.27;16.65;;;;;;;23.46;59.96;100888.53;5073261;28;20136;-41
2021/07/04 11:22:57;;;;;;;19.45;16.20;;;;;;;23.56;58.98;100892.94;5073281;28;20039;-41
2021/07/04 11:25:23;;;;;;;17.48;15.23;;;;;;;23.51;60.04;100896.66;5073713;28;20036;-40
2021/07/04 11:28:16;;;;;;;20.55;16.00;;;;;;;23.65;61.11;100888.31;5072289;28;20040;-41
2021/07/04 11:30:45;;;;;;;16.05;14.35;;;;;;;23.43;59.24;100880.91;5073217;28;20021;-41
2021/07/04 11:33:25;;;;;;;19.65;15.18;;;;;;;23.32;60.32;100882.28;5073058;28;20359;-41
2021/07/04 11:36:11;;;;;;;15.45;13.77;;;;;;;23.25;59.98;100879.97;5073319;28;20028;-41